sensor_id;sensor_type;location;lat;lon;timestamp;P1;durP1;ratioP1;P2;durP2;ratioP2
23400;SDS011;11873;49.300;8.920;2023-03-19T00:04:45;6.37;;;5.43;;
23400;SDS011;11873;49.300;8.920;2023-03-19T00:09:46;7.27;;;5.90;;
23400;SDS011;11873;49.300;8.920;2023-03-19T00:14:46;9.00;;;6.77;;
23400;SDS011;11873;49.300;8.920;2023-03-19T00:19:46;7.77;;;6.57;;
23400;SDS011;11873;49.300;8.920;2023-03-19T00:24:46;8.10;;;5.13;;
23400;SDS011;11873;49.300;8.920;2023-03-19T00:29:46;7.83;;;5.60;;
23400;SDS011;11873;49.300;8.920;2023-03-19T00:34:47;11.43;;;5.80;;
23400;SDS011;11873;49.300;8.920;2023-03-19T00:39:47;7.73;;;5.23;;
23400;SDS011;11873;49.300;8.920;2023-03-19T00:44:47;8.17;;;5.70;;
23400;SDS011;11873;49.300;8.920;2023-03-19T00:49:47;7.13;;;5.27;;
23400;SDS011;11873;49.300;8.920;2023-03-19T00:54:47;5.60;;;5.03;;
23400;SDS011;11873;49.300;8.920;2023-03-19T00:59:47;6.67;;;5.93;;
23400;SDS011;11873;49.300;8.920;2023-03-19T01:04:48;8.37;;;5.63;;
23400;SDS011;11873;49.300;8.920;2023-03-19T01:09:48;7.93;;;4.90;;
23400;SDS011;11873;49.300;8.920;2023-03-19T01:14:48;13.67;;;6.77;;
23400;SDS011;11873;49.300;8.920;2023-03-19T01:19:48;8.30;;;5.57;;
23400;SDS011;11873;49.300;8.920;2023-03-19T01:24:48;8.50;;;5.70;;
23400;SDS011;11873;49.300;8.920;2023-03-19T01:29:49;10.00;;;6.80;;
23400;SDS011;11873;49.300;8.920;2023-03-19T01:34:49;7.73;;;6.10;;
23400;SDS011;11873;49.300;8.920;2023-03-19T01:39:49;8.43;;;6.13;;
23400;SDS011;11873;49.300;8.920;2023-03-19T01:44:49;7.03;;;5.07;;
23400;SDS011;11873;49.300;8.920;2023-03-19T01:49:53;7.47;;;5.67;;
23400;SDS011;11873;49.300;8.920;2023-03-19T01:54:54;8.73;;;5.63;;
23400;SDS011;11873;49.300;8.920;2023-03-19T01:59:56;6.33;;;5.73;;
23400;SDS011;11873;49.300;8.920;2023-03-19T02:05:00;7.40;;;5.27;;
23400;SDS011;11873;49.300;8.920;2023-03-19T02:10:03;7.90;;;5.73;;
23400;SDS011;11873;49.300;8.920;2023-03-19T02:15:04;7.90;;;5.87;;
23400;SDS011;11873;49.300;8.920;2023-03-19T02:25:06;7.97;;;5.80;;
23400;SDS011;11873;49.300;8.920;2023-03-19T02:30:18;6.37;;;5.70;;
23400;SDS011;11873;49.300;8.920;2023-03-19T02:35:18;7.67;;;5.30;;
23400;SDS011;11873;49.300;8.920;2023-03-19T02:40:20;6.40;;;5.13;;
23400;SDS011;11873;49.300;8.920;2023-03-19T02:45:21;6.20;;;5.40;;
23400;SDS011;11873;49.300;8.920;2023-03-19T02:50:22;7.00;;;5.27;;
23400;SDS011;11873;49.300;8.920;2023-03-19T02:55:23;5.93;;;5.07;;
23400;SDS011;11873;49.300;8.920;2023-03-19T03:00:23;5.93;;;5.33;;
23400;SDS011;11873;49.300;8.920;2023-03-19T03:05:23;6.40;;;5.80;;
23400;SDS011;11873;49.300;8.920;2023-03-19T03:10:24;7.45;;;5.35;;
23400;SDS011;11873;49.300;8.920;2023-03-19T03:15:24;7.60;;;5.27;;
23400;SDS011;11873;49.300;8.920;2023-03-19T03:20:24;7.30;;;5.13;;
23400;SDS011;11873;49.300;8.920;2023-03-19T03:25:24;6.77;;;5.27;;
23400;SDS011;11873;49.300;8.920;2023-03-19T03:30:25;6.47;;;5.17;;
23400;SDS011;11873;49.300;8.920;2023-03-19T03:35:25;6.53;;;5.10;;
23400;SDS011;11873;49.300;8.920;2023-03-19T03:40:25;6.53;;;5.37;;
23400;SDS011;11873;49.300;8.920;2023-03-19T03:45:25;6.87;;;5.33;;
23400;SDS011;11873;49.300;8.920;2023-03-19T03:50:25;4.93;;;4.43;;
23400;SDS011;11873;49.300;8.920;2023-03-19T03:55:26;5.53;;;5.00;;
23400;SDS011;11873;49.300;8.920;2023-03-19T04:00:26;5.27;;;4.33;;
23400;SDS011;11873;49.300;8.920;2023-03-19T04:05:26;8.40;;;4.53;;
23400;SDS011;11873;49.300;8.920;2023-03-19T04:10:26;5.27;;;4.77;;
23400;SDS011;11873;49.300;8.920;2023-03-19T04:15:26;5.57;;;5.07;;
23400;SDS011;11873;49.300;8.920;2023-03-19T04:20:27;5.15;;;4.43;;
23400;SDS011;11873;49.300;8.920;2023-03-19T04:25:27;6.60;;;4.83;;
23400;SDS011;11873;49.300;8.920;2023-03-19T04:30:27;5.83;;;4.80;;
23400;SDS011;11873;49.300;8.920;2023-03-19T04:35:27;6.40;;;4.63;;
23400;SDS011;11873;49.300;8.920;2023-03-19T04:40:27;5.30;;;4.63;;
23400;SDS011;11873;49.300;8.920;2023-03-19T04:45:27;5.63;;;4.93;;
23400;SDS011;11873;49.300;8.920;2023-03-19T04:50:28;6.17;;;4.67;;
23400;SDS011;11873;49.300;8.920;2023-03-19T04:55:28;5.83;;;5.20;;
23400;SDS011;11873;49.300;8.920;2023-03-19T05:00:28;7.00;;;4.50;;
23400;SDS011;11873;49.300;8.920;2023-03-19T05:05:28;4.87;;;4.37;;
23400;SDS011;11873;49.300;8.920;2023-03-19T05:10:28;4.93;;;4.53;;
23400;SDS011;11873;49.300;8.920;2023-03-19T05:15:29;4.90;;;4.40;;
23400;SDS011;11873;49.300;8.920;2023-03-19T05:20:29;5.93;;;4.73;;
23400;SDS011;11873;49.300;8.920;2023-03-19T05:25:29;5.67;;;4.70;;
23400;SDS011;11873;49.300;8.920;2023-03-19T05:30:29;4.27;;;3.87;;
23400;SDS011;11873;49.300;8.920;2023-03-19T05:35:30;4.83;;;3.83;;
23400;SDS011;11873;49.300;8.920;2023-03-19T05:40:30;4.97;;;3.83;;
23400;SDS011;11873;49.300;8.920;2023-03-19T05:45:30;6.37;;;4.07;;
23400;SDS011;11873;49.300;8.920;2023-03-19T05:50:30;9.67;;;4.73;;
23400;SDS011;11873;49.300;8.920;2023-03-19T05:55:31;5.07;;;3.90;;
23400;SDS011;11873;49.300;8.920;2023-03-19T06:00:31;4.20;;;3.80;;
23400;SDS011;11873;49.300;8.920;2023-03-19T06:05:31;5.90;;;3.93;;
23400;SDS011;11873;49.300;8.920;2023-03-19T06:10:33;4.73;;;3.60;;
23400;SDS011;11873;49.300;8.920;2023-03-19T06:15:33;3.60;;;3.30;;
23400;SDS011;11873;49.300;8.920;2023-03-19T06:20:33;3.70;;;3.40;;
23400;SDS011;11873;49.300;8.920;2023-03-19T06:25:34;9.20;;;5.90;;
23400;SDS011;11873;49.300;8.920;2023-03-19T06:30:34;5.83;;;4.10;;
23400;SDS011;11873;49.300;8.920;2023-03-19T06:35:34;5.90;;;4.70;;
23400;SDS011;11873;49.300;8.920;2023-03-19T06:40:34;7.80;;;5.23;;
23400;SDS011;11873;49.300;8.920;2023-03-19T06:45:34;7.33;;;5.57;;
23400;SDS011;11873;49.300;8.920;2023-03-19T06:50:34;4.43;;;4.03;;
23400;SDS011;11873;49.300;8.920;2023-03-19T06:55:35;6.60;;;4.33;;
23400;SDS011;11873;49.300;8.920;2023-03-19T07:00:35;4.70;;;3.60;;
23400;SDS011;11873;49.300;8.920;2023-03-19T07:05:35;5.63;;;4.40;;
23400;SDS011;11873;49.300;8.920;2023-03-19T07:10:35;7.07;;;4.50;;
23400;SDS011;11873;49.300;8.920;2023-03-19T07:15:36;8.80;;;3.70;;
23400;SDS011;11873;49.300;8.920;2023-03-19T07:20:36;7.23;;;3.03;;
23400;SDS011;11873;49.300;8.920;2023-03-19T07:25:36;6.60;;;3.67;;
23400;SDS011;11873;49.300;8.920;2023-03-19T07:30:36;5.03;;;3.60;;
23400;SDS011;11873;49.300;8.920;2023-03-19T07:35:36;3.90;;;3.60;;
23400;SDS011;11873;49.300;8.920;2023-03-19T07:40:36;5.67;;;4.10;;
23400;SDS011;11873;49.300;8.920;2023-03-19T07:45:37;6.23;;;3.83;;
23400;SDS011;11873;49.300;8.920;2023-03-19T07:50:37;5.77;;;3.60;;
23400;SDS011;11873;49.300;8.920;2023-03-19T07:55:37;4.80;;;4.30;;
23400;SDS011;11873;49.300;8.920;2023-03-19T08:00:39;6.77;;;4.20;;
23400;SDS011;11873;49.300;8.920;2023-03-19T08:05:40;6.00;;;4.07;;
23400;SDS011;11873;49.300;8.920;2023-03-19T08:10:40;6.10;;;3.80;;
23400;SDS011;11873;49.300;8.920;2023-03-19T08:15:40;3.80;;;3.43;;
23400;SDS011;11873;49.300;8.920;2023-03-19T08:20:40;3.93;;;3.53;;
23400;SDS011;11873;49.300;8.920;2023-03-19T08:25:40;6.33;;;3.50;;
23400;SDS011;11873;49.300;8.920;2023-03-19T08:30:41;3.53;;;3.23;;
23400;SDS011;11873;49.300;8.920;2023-03-19T08:35:41;3.63;;;3.20;;
23400;SDS011;11873;49.300;8.920;2023-03-19T08:40:41;3.50;;;3.20;;
23400;SDS011;11873;49.300;8.920;2023-03-19T08:45:41;3.83;;;3.53;;
23400;SDS011;11873;49.300;8.920;2023-03-19T08:50:42;6.10;;;3.83;;
23400;SDS011;11873;49.300;8.920;2023-03-19T08:55:42;4.17;;;3.00;;
23400;SDS011;11873;49.300;8.920;2023-03-19T09:00:42;3.73;;;3.20;;
23400;SDS011;11873;49.300;8.920;2023-03-19T09:05:42;3.93;;;2.63;;
23400;SDS011;11873;49.300;8.920;2023-03-19T09:10:42;3.03;;;2.73;;
23400;SDS011;11873;49.300;8.920;2023-03-19T09:15:43;4.70;;;2.83;;
23400;SDS011;11873;49.300;8.920;2023-03-19T09:20:43;3.80;;;2.90;;
23400;SDS011;11873;49.300;8.920;2023-03-19T09:25:44;1.97;;;1.87;;
23400;SDS011;11873;49.300;8.920;2023-03-19T09:30:45;2.37;;;2.20;;
23400;SDS011;11873;49.300;8.920;2023-03-19T09:35:49;2.33;;;2.10;;
23400;SDS011;11873;49.300;8.920;2023-03-19T09:46:13;1.93;;;1.83;;
23400;SDS011;11873;49.300;8.920;2023-03-19T09:51:20;1.63;;;1.53;;
23400;SDS011;11873;49.300;8.920;2023-03-19T09:56:23;2.10;;;1.77;;
23400;SDS011;11873;49.300;8.920;2023-03-19T10:01:32;1.60;;;1.50;;
23400;SDS011;11873;49.300;8.920;2023-03-19T10:06:33;2.40;;;1.97;;
23400;SDS011;11873;49.300;8.920;2023-03-19T10:11:47;1.73;;;1.63;;
23400;SDS011;11873;49.300;8.920;2023-03-19T10:16:53;2.07;;;1.87;;
23400;SDS011;11873;49.300;8.920;2023-03-19T10:21:59;1.97;;;1.77;;
23400;SDS011;11873;49.300;8.920;2023-03-19T10:27:16;2.03;;;1.83;;
23400;SDS011;11873;49.300;8.920;2023-03-19T10:37:18;1.80;;;1.53;;
23400;SDS011;11873;49.300;8.920;2023-03-19T10:47:18;1.30;;;1.20;;
23400;SDS011;11873;49.300;8.920;2023-03-19T10:52:20;2.67;;;1.50;;
23400;SDS011;11873;49.300;8.920;2023-03-19T10:57:23;1.73;;;1.63;;
23400;SDS011;11873;49.300;8.920;2023-03-19T11:02:24;2.00;;;1.80;;
23400;SDS011;11873;49.300;8.920;2023-03-19T11:07:24;2.43;;;1.20;;
23400;SDS011;11873;49.300;8.920;2023-03-19T11:12:28;2.07;;;1.57;;
23400;SDS011;11873;49.300;8.920;2023-03-19T11:17:38;2.10;;;1.90;;
23400;SDS011;11873;49.300;8.920;2023-03-19T11:22:38;3.27;;;1.80;;
23400;SDS011;11873;49.300;8.920;2023-03-19T11:27:39;2.27;;;1.90;;
23400;SDS011;11873;49.300;8.920;2023-03-19T11:42:52;3.00;;;1.83;;
23400;SDS011;11873;49.300;8.920;2023-03-19T11:48:02;3.90;;;2.07;;
23400;SDS011;11873;49.300;8.920;2023-03-19T11:53:20;1.77;;;1.67;;
23400;SDS011;11873;49.300;8.920;2023-03-19T12:03:43;2.53;;;2.00;;
23400;SDS011;11873;49.300;8.920;2023-03-19T12:08:54;2.13;;;1.93;;
23400;SDS011;11873;49.300;8.920;2023-03-19T12:14:04;2.60;;;1.90;;
23400;SDS011;11873;49.300;8.920;2023-03-19T12:19:10;2.23;;;1.43;;
23400;SDS011;11873;49.300;8.920;2023-03-19T12:34:45;2.90;;;1.80;;
23400;SDS011;11873;49.300;8.920;2023-03-19T12:40:04;1.73;;;1.50;;
23400;SDS011;11873;49.300;8.920;2023-03-19T12:50:24;1.67;;;1.50;;
23400;SDS011;11873;49.300;8.920;2023-03-19T12:55:47;2.00;;;1.80;;
23400;SDS011;11873;49.300;8.920;2023-03-19T13:00:51;2.63;;;1.80;;
23400;SDS011;11873;49.300;8.920;2023-03-19T13:05:56;1.77;;;1.50;;
23400;SDS011;11873;49.300;8.920;2023-03-19T13:10:57;1.50;;;1.40;;
23400;SDS011;11873;49.300;8.920;2023-03-19T13:16:00;1.33;;;1.33;;
23400;SDS011;11873;49.300;8.920;2023-03-19T13:21:25;2.50;;;2.30;;
23400;SDS011;11873;49.300;8.920;2023-03-19T13:26:23;2.03;;;1.83;;
23400;SDS011;11873;49.300;8.920;2023-03-19T13:31:25;1.60;;;1.50;;
23400;SDS011;11873;49.300;8.920;2023-03-19T13:36:26;3.10;;;2.13;;
23400;SDS011;11873;49.300;8.920;2023-03-19T13:46:37;1.93;;;1.77;;
23400;SDS011;11873;49.300;8.920;2023-03-19T13:51:37;3.47;;;1.90;;
23400;SDS011;11873;49.300;8.920;2023-03-19T14:01:57;2.63;;;2.00;;
23400;SDS011;11873;49.300;8.920;2023-03-19T14:07:19;2.87;;;1.87;;
23400;SDS011;11873;49.300;8.920;2023-03-19T14:12:22;2.17;;;1.83;;
23400;SDS011;11873;49.300;8.920;2023-03-19T14:17:24;2.70;;;1.90;;
23400;SDS011;11873;49.300;8.920;2023-03-19T14:27:42;2.73;;;1.67;;
23400;SDS011;11873;49.300;8.920;2023-03-19T14:32:43;2.63;;;1.50;;
23400;SDS011;11873;49.300;8.920;2023-03-19T14:37:45;1.73;;;1.50;;
23400;SDS011;11873;49.300;8.920;2023-03-19T14:52:50;3.10;;;2.00;;
23400;SDS011;11873;49.300;8.920;2023-03-19T14:57:55;2.20;;;2.00;;
23400;SDS011;11873;49.300;8.920;2023-03-19T15:02:55;1.73;;;1.63;;
23400;SDS011;11873;49.300;8.920;2023-03-19T15:07:57;4.30;;;1.50;;
23400;SDS011;11873;49.300;8.920;2023-03-19T15:18:10;1.70;;;1.37;;
23400;SDS011;11873;49.300;8.920;2023-03-19T15:23:11;2.17;;;1.30;;
23400;SDS011;11873;49.300;8.920;2023-03-19T15:28:13;4.00;;;1.30;;
23400;SDS011;11873;49.300;8.920;2023-03-19T15:33:20;1.50;;;1.40;;
23400;SDS011;11873;49.300;8.920;2023-03-19T15:38:20;1.93;;;1.70;;
23400;SDS011;11873;49.300;8.920;2023-03-19T15:43:21;1.97;;;1.87;;
23400;SDS011;11873;49.300;8.920;2023-03-19T15:48:26;1.87;;;1.60;;
23400;SDS011;11873;49.300;8.920;2023-03-19T15:53:28;2.60;;;1.50;;
23400;SDS011;11873;49.300;8.920;2023-03-19T15:58:29;1.73;;;1.63;;
23400;SDS011;11873;49.300;8.920;2023-03-19T16:08:36;2.20;;;1.23;;
23400;SDS011;11873;49.300;8.920;2023-03-19T16:13:45;1.20;;;1.10;;
23400;SDS011;11873;49.300;8.920;2023-03-19T16:18:52;1.47;;;1.37;;
23400;SDS011;11873;49.300;8.920;2023-03-19T16:29:04;2.43;;;1.40;;
23400;SDS011;11873;49.300;8.920;2023-03-19T16:34:04;1.67;;;1.57;;
23400;SDS011;11873;49.300;8.920;2023-03-19T16:39:22;5.73;;;1.80;;
23400;SDS011;11873;49.300;8.920;2023-03-19T16:44:23;1.43;;;1.33;;
23400;SDS011;11873;49.300;8.920;2023-03-19T16:49:25;3.87;;;1.40;;
23400;SDS011;11873;49.300;8.920;2023-03-19T16:54:26;1.37;;;1.20;;
23400;SDS011;11873;49.300;8.920;2023-03-19T16:59:27;3.47;;;1.47;;
23400;SDS011;11873;49.300;8.920;2023-03-19T17:04:28;1.60;;;1.50;;
23400;SDS011;11873;49.300;8.920;2023-03-19T17:09:28;1.40;;;1.30;;
23400;SDS011;11873;49.300;8.920;2023-03-19T17:14:28;2.63;;;1.63;;
23400;SDS011;11873;49.300;8.920;2023-03-19T17:19:32;1.77;;;1.67;;
23400;SDS011;11873;49.300;8.920;2023-03-19T17:24:33;1.70;;;1.60;;
23400;SDS011;11873;49.300;8.920;2023-03-19T17:29:34;1.97;;;1.87;;
23400;SDS011;11873;49.300;8.920;2023-03-19T17:34:34;4.50;;;3.23;;
23400;SDS011;11873;49.300;8.920;2023-03-19T17:39:34;2.30;;;2.00;;
23400;SDS011;11873;49.300;8.920;2023-03-19T17:44:34;1.67;;;0.90;;
23400;SDS011;11873;49.300;8.920;2023-03-19T17:49:34;0.90;;;0.90;;
23400;SDS011;11873;49.300;8.920;2023-03-19T17:54:35;1.23;;;1.13;;
23400;SDS011;11873;49.300;8.920;2023-03-19T17:59:35;1.60;;;1.50;;
23400;SDS011;11873;49.300;8.920;2023-03-19T18:04:35;2.80;;;1.60;;
23400;SDS011;11873;49.300;8.920;2023-03-19T18:09:35;1.30;;;1.30;;
23400;SDS011;11873;49.300;8.920;2023-03-19T18:14:35;1.70;;;1.60;;
23400;SDS011;11873;49.300;8.920;2023-03-19T18:19:36;1.70;;;1.60;;
23400;SDS011;11873;49.300;8.920;2023-03-19T18:24:37;2.10;;;2.00;;
23400;SDS011;11873;49.300;8.920;2023-03-19T18:29:37;3.10;;;2.83;;
23400;SDS011;11873;49.300;8.920;2023-03-19T18:34:37;2.70;;;2.50;;
23400;SDS011;11873;49.300;8.920;2023-03-19T18:39:37;2.47;;;2.25;;
23400;SDS011;11873;49.300;8.920;2023-03-19T18:44:37;5.03;;;4.07;;
23400;SDS011;11873;49.300;8.920;2023-03-19T18:49:38;2.50;;;2.30;;
23400;SDS011;11873;49.300;8.920;2023-03-19T18:54:38;13.57;;;7.53;;
23400;SDS011;11873;49.300;8.920;2023-03-19T18:59:38;5.87;;;4.30;;
23400;SDS011;11873;49.300;8.920;2023-03-19T19:04:38;8.70;;;4.10;;
23400;SDS011;11873;49.300;8.920;2023-03-19T19:09:38;5.40;;;4.63;;
23400;SDS011;11873;49.300;8.920;2023-03-19T19:14:39;4.57;;;4.07;;
23400;SDS011;11873;49.300;8.920;2023-03-19T19:19:39;9.23;;;5.23;;
23400;SDS011;11873;49.300;8.920;2023-03-19T19:24:39;6.10;;;4.67;;
23400;SDS011;11873;49.300;8.920;2023-03-19T19:29:39;4.70;;;3.63;;
23400;SDS011;11873;49.300;8.920;2023-03-19T19:34:39;4.67;;;3.03;;
23400;SDS011;11873;49.300;8.920;2023-03-19T19:39:40;4.80;;;4.30;;
23400;SDS011;11873;49.300;8.920;2023-03-19T19:44:40;5.57;;;4.50;;
23400;SDS011;11873;49.300;8.920;2023-03-19T19:49:41;5.97;;;3.87;;
23400;SDS011;11873;49.300;8.920;2023-03-19T19:54:41;5.43;;;3.53;;
23400;SDS011;11873;49.300;8.920;2023-03-19T19:59:41;2.90;;;2.57;;
23400;SDS011;11873;49.300;8.920;2023-03-19T20:04:41;3.40;;;2.47;;
23400;SDS011;11873;49.300;8.920;2023-03-19T20:09:42;3.77;;;2.47;;
23400;SDS011;11873;49.300;8.920;2023-03-19T20:14:42;5.47;;;3.50;;
23400;SDS011;11873;49.300;8.920;2023-03-19T20:19:43;3.87;;;2.33;;
23400;SDS011;11873;49.300;8.920;2023-03-19T20:24:43;2.40;;;2.30;;
23400;SDS011;11873;49.300;8.920;2023-03-19T20:29:43;3.03;;;2.23;;
23400;SDS011;11873;49.300;8.920;2023-03-19T20:34:43;4.07;;;2.33;;
23400;SDS011;11873;49.300;8.920;2023-03-19T20:39:44;3.03;;;2.57;;
23400;SDS011;11873;49.300;8.920;2023-03-19T20:44:44;3.77;;;2.73;;
23400;SDS011;11873;49.300;8.920;2023-03-19T20:49:45;2.67;;;2.47;;
23400;SDS011;11873;49.300;8.920;2023-03-19T20:54:45;3.20;;;3.00;;
23400;SDS011;11873;49.300;8.920;2023-03-19T20:59:45;4.03;;;3.72;;
23400;SDS011;11873;49.300;8.920;2023-03-19T21:04:46;3.87;;;3.57;;
23400;SDS011;11873;49.300;8.920;2023-03-19T21:09:47;3.40;;;2.70;;
23400;SDS011;11873;49.300;8.920;2023-03-19T21:14:47;5.60;;;3.07;;
23400;SDS011;11873;49.300;8.920;2023-03-19T21:19:47;5.63;;;5.03;;
23400;SDS011;11873;49.300;8.920;2023-03-19T21:24:47;5.40;;;4.43;;
23400;SDS011;11873;49.300;8.920;2023-03-19T21:29:48;5.47;;;4.93;;
23400;SDS011;11873;49.300;8.920;2023-03-19T21:34:49;10.33;;;6.40;;
23400;SDS011;11873;49.300;8.920;2023-03-19T21:39:49;8.97;;;5.83;;
23400;SDS011;11873;49.300;8.920;2023-03-19T21:44:50;5.47;;;4.63;;
23400;SDS011;11873;49.300;8.920;2023-03-19T21:49:54;4.23;;;3.83;;
23400;SDS011;11873;49.300;8.920;2023-03-19T21:54:54;4.07;;;3.67;;
23400;SDS011;11873;49.300;8.920;2023-03-19T21:59:54;4.63;;;4.23;;
23400;SDS011;11873;49.300;8.920;2023-03-19T22:04:55;4.87;;;3.40;;
23400;SDS011;11873;49.300;8.920;2023-03-19T22:09:55;7.17;;;3.80;;
23400;SDS011;11873;49.300;8.920;2023-03-19T22:14:55;3.80;;;3.50;;
23400;SDS011;11873;49.300;8.920;2023-03-19T22:19:55;4.30;;;2.90;;
23400;SDS011;11873;49.300;8.920;2023-03-19T22:24:55;3.40;;;2.57;;
23400;SDS011;11873;49.300;8.920;2023-03-19T22:29:56;3.23;;;2.93;;
23400;SDS011;11873;49.300;8.920;2023-03-19T22:34:56;2.67;;;2.47;;
23400;SDS011;11873;49.300;8.920;2023-03-19T22:39:56;2.80;;;2.60;;
23400;SDS011;11873;49.300;8.920;2023-03-19T22:44:57;3.10;;;2.83;;
23400;SDS011;11873;49.300;8.920;2023-03-19T22:49:57;3.62;;;3.30;;
23400;SDS011;11873;49.300;8.920;2023-03-19T22:54:57;6.63;;;3.30;;
23400;SDS011;11873;49.300;8.920;2023-03-19T22:59:57;3.60;;;3.30;;
23400;SDS011;11873;49.300;8.920;2023-03-19T23:04:57;3.50;;;3.20;;
23400;SDS011;11873;49.300;8.920;2023-03-19T23:09:58;3.50;;;3.10;;
23400;SDS011;11873;49.300;8.920;2023-03-19T23:14:58;3.00;;;2.80;;
23400;SDS011;11873;49.300;8.920;2023-03-19T23:19:58;2.33;;;2.23;;
23400;SDS011;11873;49.300;8.920;2023-03-19T23:24:58;2.90;;;2.70;;
23400;SDS011;11873;49.300;8.920;2023-03-19T23:29:58;4.97;;;2.90;;
23400;SDS011;11873;49.300;8.920;2023-03-19T23:34:58;2.97;;;2.67;;
23400;SDS011;11873;49.300;8.920;2023-03-19T23:39:59;3.10;;;2.80;;
23400;SDS011;11873;49.300;8.920;2023-03-19T23:44:59;3.53;;;3.00;;
23400;SDS011;11873;49.300;8.920;2023-03-19T23:50:00;3.00;;;2.70;;
23400;SDS011;11873;49.300;8.920;2023-03-19T23:55:00;2.83;;;2.63;;
